CST,Max TemperatureF,Mean TemperatureF,Min TemperatureF,Max Dew PointF,MeanDew PointF,Min DewpointF,Max Humidity, Mean Humidity, Min Humidity, Max Sea Level PressureIn, Mean Sea Level PressureIn, Min Sea Level PressureIn, Max VisibilityMiles, Mean VisibilityMiles, Min VisibilityMiles, Max Wind SpeedMPH, Mean Wind SpeedMPH, Max Gust SpeedMPH,PrecipitationIn, CloudCover, Events, WindDirDegrees
2012-11-1,78,66,53,57,52,46,100,67,34,30.10,30.04,29.99,10,8,0,7,1,,0.00,0,Fog,185
2012-11-2,82,70,57,68,65,57,100,80,54,30.11,30.05,30.01,10,6,0,7,3,,0.00,3,Fog,259
2012-11-3,84,70,57,68,63,55,100,71,45,30.15,30.09,30.05,10,8,0,7,2,,0.00,1,Fog,283
2012-11-4,75,68,60,66,63,61,100,91,73,30.12,30.09,30.05,10,5,0,23,3,39,0.00,7,Fog-Rain-Thunderstorm,36
2012-11-5,69,62,55,59,55,52,88,72,60,30.08,30.03,29.96,10,9,5,9,5,,0.00,5,Rain,103
2012-11-6,60,56,46,52,51,46,100,82,72,30.06,30.03,30.01,10,9,4,13,10,18,0.00,6,,355
2012-11-7,69,54,39,48,42,37,93,57,31,30.10,30.05,30.00,10,9,5,12,6,17,0.00,0,,331
2012-11-8,66,55,44,46,39,34,93,57,30,30.28,30.22,30.18,10,10,10,7,4,,0.00,0,,33
2012-11-9,71,55,39,55,50,37,94,69,46,30.29,30.24,30.21,10,10,10,8,2,,0.00,0,,147
2012-11-10,75,65,55,59,56,54,94,65,47,30.27,30.22,30.19,10,8,7,14,6,18,0.00,3,,120
2012-11-11,80,76,71,63,60,57,73,59,47,30.20,30.16,30.13,7,7,7,21,13,25,0.00,3,,133
2012-11-12,62,60,53,57,52,46,88,77,59,30.34,30.27,30.20,10,6,2,16,13,25,0.00,7,Rain-Thunderstorm,4
2012-11-13,60,50,41,36,28,23,66,40,25,30.41,30.34,30.27,10,10,10,17,13,23,0.00,1,,17
2012-11-14,64,52,41,39,34,27,87,56,26,30.33,30.26,30.22,10,10,10,9,4,,0.00,0,,339
2012-11-15,66,52,37,46,42,36,93,63,37,30.30,30.23,30.19,10,10,10,9,5,,0.00,0,,13
2012-11-16,68,54,41,46,42,37,93,66,33,30.31,30.26,30.21,10,9,5,9,4,,0.00,0,,18
2012-11-17,68,52,37,45,39,36,93,57,30,30.36,30.30,30.23,10,10,10,10,4,,0.00,0,,35
2012-11-18,69,56,42,45,37,34,93,49,28,30.33,30.29,30.24,10,9,7,8,6,,0.00,0,,46
2012-11-19,73,62,50,46,44,43,87,50,33,30.33,30.25,30.18,10,10,10,5,1,,0.00,0,,41
2012-11-20,73,60,46,48,41,30,93,50,20,30.22,30.17,30.11,10,10,10,12,3,,0.00,1,,340
2012-11-21,78,64,50,52,46,39,88,56,24,30.22,30.16,30.12,10,10,10,9,3,17,0.00,1,,352
2012-11-22,75,57,39,54,47,37,93,59,31,30.25,30.21,30.18,10,10,7,9,3,,0.00,0,,153
2012-11-23,77,64,50,55,52,46,94,65,36,30.28,30.21,30.16,10,8,2,10,2,,0.00,3,,328
2012-11-24,60,50,39,37,32,27,87,52,27,30.32,30.24,30.19,10,8,7,10,6,,0.00,0,,6
2012-11-25,62,47,32,45,39,30,93,56,42,30.23,30.19,30.13,10,9,7,8,4,,0.00,0,,125
2012-11-26,69,62,55,63,60,52,94,80,64,30.16,30.12,30.09,10,8,5,9,4,,0.00,7,Rain,164
2012-11-27,64,60,55,61,57,52,94,87,77,30.27,30.18,30.10,7,6,2,13,5,,0.00,8,Rain-Thunderstorm,22
2012-11-28,64,53,39,43,38,30,93,65,28,30.43,30.37,30.31,10,9,5,12,7,,0.00,2,,14
2012-11-29,64,50,35,48,45,32,93,67,52,30.37,30.30,30.26,10,10,7,9,4,,0.00,1,,115
2012-11-30,71,58,44,55,51,43,93,68,50,30.30,30.25,30.20,10,8,1,7,3,,0.00,3,,122